Keystone, IN (46759)

12:33 PM EDT on October 02, 2014 (GMT -0400)
Elite Ag Solutions | Change Station
CLOSE
Current Station
Personal Weather Station
Location: Warren, IN
Elevation: 812 ft
Nearby Weather Stations

Elev 812 ft 40.68 °N, 85.42 °W | Updated 11 minutes ago

Mostly Cloudy
Mostly Cloudy
71.3 °F
Feels Like 73 °F
N
4.0
Wind Variable Wind from South
Gusts 7.0 mph

Today
High -- | Low -- °F
--% Chance of Precip.
Yesterday
High -- | Low -- °F
Precip. -- in
7:38 AM 7:21 PM
First Quarter, 60% visible
Pressure 29.94 in
Visibility 10.0 miles
Clouds Few 8000 ft
Overcast 10000 ft
Heat Index 73 °F
Dew Point 63 °F
Humidity 76%
Rainfall 0.00 in
Snow Depth Not available.
UV 2 out of 12
Pollen 3.70 out of 12
Air Quality Not available.
Flu Activity Not available.
METAR KFWA 021554Z 17007KT 10SM FEW080 OVC100 20/14 A2995 RMK RAE06 SLP139 P0000 T02000144

More Conditions Fewer Conditions

Pressure 29.94 in
Visibility 10.0 miles
Clouds Few 8000 ft
Overcast 10000 ft
Heat Index 73 °F
Dew Point 63 °F
Humidity 76%
Rainfall 0.00 in
Snow Depth Not available.
UV 2 out of 12
Pollen 3.70 out of 12
Air Quality Not available.
Flu Activity Not available.
METAR KFWA 021554Z 17007KT 10SM FEW080 OVC100 20/14 A2995 RMK RAE06 SLP139 P0000 T02000144

More Conditions Fewer Conditions

10-Day Weather Forecast

Almanac

Astronomy

Oct. 02, 2014 Rise Set
Actual Time 7:38 AM EDT 7:21 PM EDT
Civil Twilight 7:11 AM EDT 7:48 PM EDT
Nautical Twilight 6:39 AM EDT 8:20 PM EDT
Astronomical Twilight 6:07 AM EDT 8:51 PM EDT
Moon 3:28 PM EDT 12:52 AM EDT
Length of Visible Light 12h 37m
Length of Day
11h 42m
Tomorrow will be 2m 40s shorter.
First Quarter, 60% of the Moon is Illuminated
Today
First Quarter
Oct 8
Full
Oct 15
Last Quarter
Oct 23
New
Oct 30
First Quarter

Today's Extremes

State Highs State Lows

Community

WunderPhotos

Upload Photos

1,758,294 photos uploaded!

WunderBlogs® & News

Nearby

Snow Depth

Station Depth Elevation
No new snow has been reported.

Earthquake Activity

City Distance Mag. Time & Date
No recent earthquake activity has been reported nearby.
Minimum magnitude displayed is 2.5.

Coastal Water Temperatures

Place Temperature
No Stations Reporting

Nearby Weather Stations